sensor_id;sensor_type;location;lat;lon;timestamp;P1;durP1;ratioP1;P2;durP2;ratioP2
65172;SDS011;51758;52.218;5.172;2022-07-19T00:01:23;4.53;;;3.60;;
65172;SDS011;51758;52.218;5.172;2022-07-19T00:03:51;5.10;;;3.80;;
65172;SDS011;51758;52.218;5.172;2022-07-19T00:06:19;4.93;;;3.88;;
65172;SDS011;51758;52.218;5.172;2022-07-19T00:08:47;5.85;;;3.80;;
65172;SDS011;51758;52.218;5.172;2022-07-19T00:11:15;4.68;;;3.80;;
65172;SDS011;51758;52.218;5.172;2022-07-19T00:13:42;5.22;;;3.60;;
65172;SDS011;51758;52.218;5.172;2022-07-19T00:16:12;6.35;;;4.00;;
65172;SDS011;51758;52.218;5.172;2022-07-19T00:18:41;4.87;;;3.60;;
65172;SDS011;51758;52.218;5.172;2022-07-19T00:21:09;6.20;;;3.88;;
65172;SDS011;51758;52.218;5.172;2022-07-19T00:23:37;5.15;;;4.15;;
65172;SDS011;51758;52.218;5.172;2022-07-19T00:26:05;4.70;;;3.92;;
65172;SDS011;51758;52.218;5.172;2022-07-19T00:28:32;6.55;;;4.13;;
65172;SDS011;51758;52.218;5.172;2022-07-19T00:31:00;6.18;;;3.88;;
65172;SDS011;51758;52.218;5.172;2022-07-19T00:33:29;5.40;;;3.83;;
65172;SDS011;51758;52.218;5.172;2022-07-19T00:35:57;4.33;;;3.57;;
65172;SDS011;51758;52.218;5.172;2022-07-19T00:38:25;4.53;;;3.53;;
65172;SDS011;51758;52.218;5.172;2022-07-19T00:40:53;6.55;;;4.00;;
65172;SDS011;51758;52.218;5.172;2022-07-19T00:43:20;6.00;;;3.85;;
65172;SDS011;51758;52.218;5.172;2022-07-19T00:45:48;4.85;;;3.78;;
65172;SDS011;51758;52.218;5.172;2022-07-19T00:48:16;7.50;;;3.55;;
65172;SDS011;51758;52.218;5.172;2022-07-19T00:50:45;7.07;;;3.88;;
65172;SDS011;51758;52.218;5.172;2022-07-19T00:53:12;4.80;;;3.60;;
65172;SDS011;51758;52.218;5.172;2022-07-19T00:55:44;5.87;;;4.17;;
65172;SDS011;51758;52.218;5.172;2022-07-19T00:58:12;6.47;;;3.57;;
65172;SDS011;51758;52.218;5.172;2022-07-19T01:00:42;6.00;;;4.07;;
65172;SDS011;51758;52.218;5.172;2022-07-19T01:03:10;6.93;;;3.85;;
65172;SDS011;51758;52.218;5.172;2022-07-19T01:05:40;5.27;;;3.83;;
65172;SDS011;51758;52.218;5.172;2022-07-19T01:08:09;6.45;;;4.07;;
65172;SDS011;51758;52.218;5.172;2022-07-19T01:10:36;5.97;;;4.00;;
65172;SDS011;51758;52.218;5.172;2022-07-19T01:13:04;5.13;;;3.72;;
65172;SDS011;51758;52.218;5.172;2022-07-19T01:15:33;5.13;;;3.63;;
65172;SDS011;51758;52.218;5.172;2022-07-19T01:18:00;5.53;;;3.60;;
65172;SDS011;51758;52.218;5.172;2022-07-19T01:20:28;8.32;;;4.13;;
65172;SDS011;51758;52.218;5.172;2022-07-19T01:22:58;7.90;;;4.00;;
65172;SDS011;51758;52.218;5.172;2022-07-19T01:25:26;7.73;;;4.13;;
65172;SDS011;51758;52.218;5.172;2022-07-19T01:27:56;5.67;;;4.17;;
65172;SDS011;51758;52.218;5.172;2022-07-19T01:30:25;6.75;;;3.88;;
65172;SDS011;51758;52.218;5.172;2022-07-19T01:32:54;6.30;;;3.70;;
65172;SDS011;51758;52.218;5.172;2022-07-19T01:35:22;4.77;;;3.87;;
65172;SDS011;51758;52.218;5.172;2022-07-19T01:37:50;6.45;;;3.95;;
65172;SDS011;51758;52.218;5.172;2022-07-19T01:40:20;5.93;;;3.67;;
65172;SDS011;51758;52.218;5.172;2022-07-19T01:42:48;5.83;;;3.60;;
65172;SDS011;51758;52.218;5.172;2022-07-19T01:45:17;5.43;;;3.70;;
65172;SDS011;51758;52.218;5.172;2022-07-19T01:47:46;5.60;;;3.67;;
65172;SDS011;51758;52.218;5.172;2022-07-19T01:52:42;5.43;;;4.00;;
65172;SDS011;51758;52.218;5.172;2022-07-19T01:55:16;6.97;;;4.37;;
65172;SDS011;51758;52.218;5.172;2022-07-19T01:57:45;7.63;;;3.92;;
65172;SDS011;51758;52.218;5.172;2022-07-19T02:00:13;6.07;;;3.73;;
65172;SDS011;51758;52.218;5.172;2022-07-19T02:02:41;6.35;;;3.90;;
65172;SDS011;51758;52.218;5.172;2022-07-19T02:05:09;6.10;;;4.15;;
65172;SDS011;51758;52.218;5.172;2022-07-19T02:07:37;7.80;;;4.55;;
65172;SDS011;51758;52.218;5.172;2022-07-19T02:10:06;5.30;;;4.10;;
65172;SDS011;51758;52.218;5.172;2022-07-19T02:12:35;5.43;;;3.80;;
65172;SDS011;51758;52.218;5.172;2022-07-19T02:15:05;6.75;;;4.00;;
65172;SDS011;51758;52.218;5.172;2022-07-19T02:17:33;6.03;;;3.90;;
65172;SDS011;51758;52.218;5.172;2022-07-19T02:20:01;5.57;;;3.50;;
65172;SDS011;51758;52.218;5.172;2022-07-19T02:22:29;5.00;;;3.88;;
65172;SDS011;51758;52.218;5.172;2022-07-19T02:24:57;4.47;;;3.50;;
65172;SDS011;51758;52.218;5.172;2022-07-19T02:27:25;6.00;;;4.20;;
65172;SDS011;51758;52.218;5.172;2022-07-19T02:29:54;7.70;;;4.07;;
65172;SDS011;51758;52.218;5.172;2022-07-19T02:32:23;6.18;;;3.83;;
65172;SDS011;51758;52.218;5.172;2022-07-19T02:34:51;6.57;;;4.00;;
65172;SDS011;51758;52.218;5.172;2022-07-19T02:37:19;4.20;;;3.78;;
65172;SDS011;51758;52.218;5.172;2022-07-19T02:39:46;5.97;;;3.78;;
65172;SDS011;51758;52.218;5.172;2022-07-19T02:42:14;4.65;;;3.63;;
65172;SDS011;51758;52.218;5.172;2022-07-19T02:44:42;8.65;;;4.10;;
65172;SDS011;51758;52.218;5.172;2022-07-19T02:47:09;4.50;;;3.78;;
65172;SDS011;51758;52.218;5.172;2022-07-19T02:49:38;6.22;;;3.90;;
65172;SDS011;51758;52.218;5.172;2022-07-19T02:52:06;4.80;;;3.80;;
65172;SDS011;51758;52.218;5.172;2022-07-19T02:54:34;5.45;;;3.47;;
65172;SDS011;51758;52.218;5.172;2022-07-19T02:57:02;4.53;;;3.70;;
65172;SDS011;51758;52.218;5.172;2022-07-19T02:59:29;4.53;;;3.80;;
65172;SDS011;51758;52.218;5.172;2022-07-19T03:01:57;5.78;;;4.43;;
65172;SDS011;51758;52.218;5.172;2022-07-19T03:04:25;5.05;;;4.18;;
65172;SDS011;51758;52.218;5.172;2022-07-19T03:06:54;7.22;;;4.03;;
65172;SDS011;51758;52.218;5.172;2022-07-19T03:09:22;6.67;;;4.37;;
65172;SDS011;51758;52.218;5.172;2022-07-19T03:11:49;7.63;;;4.50;;
65172;SDS011;51758;52.218;5.172;2022-07-19T03:14:17;7.20;;;4.50;;
65172;SDS011;51758;52.218;5.172;2022-07-19T03:16:45;5.97;;;4.90;;
65172;SDS011;51758;52.218;5.172;2022-07-19T03:19:12;7.15;;;4.50;;
65172;SDS011;51758;52.218;5.172;2022-07-19T03:21:40;6.40;;;4.72;;
65172;SDS011;51758;52.218;5.172;2022-07-19T03:24:09;8.32;;;5.18;;
65172;SDS011;51758;52.218;5.172;2022-07-19T03:26:37;8.33;;;5.13;;
65172;SDS011;51758;52.218;5.172;2022-07-19T03:29:04;7.38;;;5.05;;
65172;SDS011;51758;52.218;5.172;2022-07-19T03:31:32;7.15;;;4.78;;
65172;SDS011;51758;52.218;5.172;2022-07-19T03:34:00;5.97;;;4.57;;
65172;SDS011;51758;52.218;5.172;2022-07-19T03:36:28;7.28;;;4.90;;
65172;SDS011;51758;52.218;5.172;2022-07-19T03:38:56;6.55;;;5.10;;
65172;SDS011;51758;52.218;5.172;2022-07-19T03:41:24;6.45;;;5.38;;
65172;SDS011;51758;52.218;5.172;2022-07-19T03:43:52;7.30;;;5.30;;
65172;SDS011;51758;52.218;5.172;2022-07-19T03:46:20;7.82;;;5.75;;
65172;SDS011;51758;52.218;5.172;2022-07-19T03:48:48;7.25;;;5.72;;
65172;SDS011;51758;52.218;5.172;2022-07-19T03:51:15;8.45;;;5.70;;
65172;SDS011;51758;52.218;5.172;2022-07-19T03:53:43;8.90;;;5.75;;
65172;SDS011;51758;52.218;5.172;2022-07-19T03:56:11;7.88;;;5.40;;
65172;SDS011;51758;52.218;5.172;2022-07-19T03:58:40;7.90;;;5.65;;
65172;SDS011;51758;52.218;5.172;2022-07-19T04:01:08;10.43;;;6.97;;
65172;SDS011;51758;52.218;5.172;2022-07-19T04:03:36;9.75;;;6.13;;
65172;SDS011;51758;52.218;5.172;2022-07-19T04:06:04;9.67;;;5.77;;
65172;SDS011;51758;52.218;5.172;2022-07-19T04:08:32;7.63;;;5.72;;
65172;SDS011;51758;52.218;5.172;2022-07-19T04:11:02;9.63;;;6.50;;
65172;SDS011;51758;52.218;5.172;2022-07-19T04:13:31;7.20;;;6.32;;
65172;SDS011;51758;52.218;5.172;2022-07-19T04:16:01;10.93;;;6.30;;
65172;SDS011;51758;52.218;5.172;2022-07-19T04:18:29;8.77;;;6.17;;
65172;SDS011;51758;52.218;5.172;2022-07-19T04:20:57;8.05;;;6.07;;
65172;SDS011;51758;52.218;5.172;2022-07-19T04:23:25;8.07;;;6.80;;
65172;SDS011;51758;52.218;5.172;2022-07-19T04:25:52;11.20;;;7.00;;
65172;SDS011;51758;52.218;5.172;2022-07-19T04:28:20;9.90;;;6.38;;
65172;SDS011;51758;52.218;5.172;2022-07-19T04:30:48;6.38;;;5.50;;
65172;SDS011;51758;52.218;5.172;2022-07-19T04:33:18;7.57;;;6.20;;
65172;SDS011;51758;52.218;5.172;2022-07-19T04:35:46;8.70;;;5.97;;
65172;SDS011;51758;52.218;5.172;2022-07-19T04:38:14;13.23;;;6.97;;
65172;SDS011;51758;52.218;5.172;2022-07-19T04:40:41;8.88;;;6.38;;
65172;SDS011;51758;52.218;5.172;2022-07-19T04:43:09;11.75;;;7.10;;
65172;SDS011;51758;52.218;5.172;2022-07-19T04:45:37;8.52;;;6.55;;
65172;SDS011;51758;52.218;5.172;2022-07-19T04:48:05;10.40;;;6.30;;
65172;SDS011;51758;52.218;5.172;2022-07-19T04:50:34;9.75;;;6.70;;
65172;SDS011;51758;52.218;5.172;2022-07-19T04:53:02;8.77;;;6.50;;
65172;SDS011;51758;52.218;5.172;2022-07-19T04:55:30;7.68;;;6.15;;
65172;SDS011;51758;52.218;5.172;2022-07-19T04:57:58;6.80;;;6.10;;
65172;SDS011;51758;52.218;5.172;2022-07-19T05:00:26;7.57;;;6.28;;
65172;SDS011;51758;52.218;5.172;2022-07-19T05:02:54;9.98;;;6.68;;
65172;SDS011;51758;52.218;5.172;2022-07-19T05:05:21;10.43;;;7.05;;
65172;SDS011;51758;52.218;5.172;2022-07-19T05:07:51;8.98;;;6.88;;
65172;SDS011;51758;52.218;5.172;2022-07-19T05:10:19;9.10;;;6.50;;
65172;SDS011;51758;52.218;5.172;2022-07-19T05:12:47;8.98;;;6.25;;
65172;SDS011;51758;52.218;5.172;2022-07-19T05:15:14;11.95;;;7.10;;
65172;SDS011;51758;52.218;5.172;2022-07-19T05:17:42;9.30;;;6.60;;
65172;SDS011;51758;52.218;5.172;2022-07-19T05:20:10;8.02;;;6.35;;
65172;SDS011;51758;52.218;5.172;2022-07-19T05:22:41;9.57;;;6.70;;
65172;SDS011;51758;52.218;5.172;2022-07-19T05:25:15;9.40;;;7.20;;
65172;SDS011;51758;52.218;5.172;2022-07-19T05:27:43;10.07;;;7.20;;
65172;SDS011;51758;52.218;5.172;2022-07-19T05:30:11;8.70;;;6.72;;
65172;SDS011;51758;52.218;5.172;2022-07-19T05:32:39;9.32;;;7.40;;
65172;SDS011;51758;52.218;5.172;2022-07-19T05:35:07;10.43;;;7.10;;
65172;SDS011;51758;52.218;5.172;2022-07-19T05:40:03;11.95;;;6.97;;
65172;SDS011;51758;52.218;5.172;2022-07-19T05:42:33;9.80;;;6.80;;
65172;SDS011;51758;52.218;5.172;2022-07-19T05:45:01;10.07;;;6.40;;
65172;SDS011;51758;52.218;5.172;2022-07-19T05:47:28;11.02;;;6.47;;
65172;SDS011;51758;52.218;5.172;2022-07-19T05:49:56;6.78;;;5.72;;
65172;SDS011;51758;52.218;5.172;2022-07-19T05:52:25;10.07;;;6.40;;
65172;SDS011;51758;52.218;5.172;2022-07-19T05:55:02;13.00;;;6.30;;
65172;SDS011;51758;52.218;5.172;2022-07-19T05:57:30;8.38;;;5.85;;
65172;SDS011;51758;52.218;5.172;2022-07-19T05:59:59;11.38;;;6.05;;
65172;SDS011;51758;52.218;5.172;2022-07-19T06:02:26;10.73;;;6.30;;
65172;SDS011;51758;52.218;5.172;2022-07-19T06:04:54;8.25;;;6.30;;
65172;SDS011;51758;52.218;5.172;2022-07-19T06:07:22;7.80;;;6.20;;
65172;SDS011;51758;52.218;5.172;2022-07-19T06:09:50;8.43;;;6.00;;
65172;SDS011;51758;52.218;5.172;2022-07-19T06:12:18;7.72;;;5.55;;
65172;SDS011;51758;52.218;5.172;2022-07-19T06:14:45;9.43;;;5.90;;
65172;SDS011;51758;52.218;5.172;2022-07-19T06:17:14;8.57;;;5.30;;
65172;SDS011;51758;52.218;5.172;2022-07-19T06:19:42;4.80;;;3.92;;
65172;SDS011;51758;52.218;5.172;2022-07-19T06:22:10;8.65;;;4.57;;
65172;SDS011;51758;52.218;5.172;2022-07-19T06:24:37;7.43;;;4.05;;
65172;SDS011;51758;52.218;5.172;2022-07-19T06:27:05;7.95;;;3.85;;
65172;SDS011;51758;52.218;5.172;2022-07-19T06:29:33;8.40;;;3.45;;
65172;SDS011;51758;52.218;5.172;2022-07-19T06:32:01;12.85;;;3.90;;
65172;SDS011;51758;52.218;5.172;2022-07-19T06:34:30;7.25;;;3.60;;
65172;SDS011;51758;52.218;5.172;2022-07-19T06:36:57;7.95;;;3.10;;
65172;SDS011;51758;52.218;5.172;2022-07-19T06:39:25;3.90;;;2.70;;
65172;SDS011;51758;52.218;5.172;2022-07-19T06:41:53;6.25;;;2.80;;
65172;SDS011;51758;52.218;5.172;2022-07-19T06:44:20;3.95;;;2.50;;
65172;SDS011;51758;52.218;5.172;2022-07-19T06:46:48;9.35;;;2.75;;
65172;SDS011;51758;52.218;5.172;2022-07-19T06:49:20;5.32;;;2.83;;
65172;SDS011;51758;52.218;5.172;2022-07-19T06:51:50;5.75;;;2.75;;
65172;SDS011;51758;52.218;5.172;2022-07-19T06:54:17;8.82;;;3.00;;
65172;SDS011;51758;52.218;5.172;2022-07-19T06:56:45;7.18;;;2.70;;
65172;SDS011;51758;52.218;5.172;2022-07-19T06:59:12;6.80;;;2.88;;
65172;SDS011;51758;52.218;5.172;2022-07-19T07:01:40;7.47;;;2.67;;
65172;SDS011;51758;52.218;5.172;2022-07-19T07:04:08;9.25;;;2.80;;
65172;SDS011;51758;52.218;5.172;2022-07-19T07:06:36;4.65;;;2.67;;
65172;SDS011;51758;52.218;5.172;2022-07-19T07:09:05;7.78;;;2.40;;
65172;SDS011;51758;52.218;5.172;2022-07-19T07:11:33;5.03;;;2.63;;
65172;SDS011;51758;52.218;5.172;2022-07-19T07:14:01;7.45;;;2.60;;
65172;SDS011;51758;52.218;5.172;2022-07-19T07:18:56;5.80;;;2.40;;
65172;SDS011;51758;52.218;5.172;2022-07-19T07:21:24;9.52;;;2.47;;
65172;SDS011;51758;52.218;5.172;2022-07-19T07:23:52;10.25;;;2.58;;
65172;SDS011;51758;52.218;5.172;2022-07-19T07:26:21;5.40;;;2.80;;
65172;SDS011;51758;52.218;5.172;2022-07-19T07:28:49;7.35;;;2.78;;
65172;SDS011;51758;52.218;5.172;2022-07-19T07:31:17;6.68;;;2.75;;
65172;SDS011;51758;52.218;5.172;2022-07-19T07:33:44;8.18;;;2.65;;
65172;SDS011;51758;52.218;5.172;2022-07-19T07:36:12;10.02;;;2.75;;
65172;SDS011;51758;52.218;5.172;2022-07-19T07:38:40;12.82;;;2.80;;
65172;SDS011;51758;52.218;5.172;2022-07-19T07:41:08;10.68;;;2.83;;
65172;SDS011;51758;52.218;5.172;2022-07-19T07:43:57;7.75;;;2.53;;
65172;SDS011;51758;52.218;5.172;2022-07-19T07:46:25;10.23;;;2.65;;
65172;SDS011;51758;52.218;5.172;2022-07-19T07:48:53;7.25;;;2.60;;
65172;SDS011;51758;52.218;5.172;2022-07-19T07:51:22;13.98;;;3.10;;
65172;SDS011;51758;52.218;5.172;2022-07-19T07:54:10;9.70;;;2.95;;
65172;SDS011;51758;52.218;5.172;2022-07-19T07:56:38;9.38;;;3.00;;
65172;SDS011;51758;52.218;5.172;2022-07-19T07:59:07;22.05;;;3.22;;
65172;SDS011;51758;52.218;5.172;2022-07-19T08:01:35;18.08;;;3.10;;
65172;SDS011;51758;52.218;5.172;2022-07-19T08:04:05;14.77;;;3.40;;
65172;SDS011;51758;52.218;5.172;2022-07-19T08:06:32;16.90;;;3.20;;
65172;SDS011;51758;52.218;5.172;2022-07-19T08:09:00;18.63;;;3.58;;
65172;SDS011;51758;52.218;5.172;2022-07-19T08:11:28;17.70;;;3.17;;
65172;SDS011;51758;52.218;5.172;2022-07-19T08:13:55;26.70;;;3.45;;
65172;SDS011;51758;52.218;5.172;2022-07-19T08:18:52;21.50;;;3.25;;
65172;SDS011;51758;52.218;5.172;2022-07-19T08:23:47;18.35;;;3.30;;
65172;SDS011;51758;52.218;5.172;2022-07-19T08:26:15;19.23;;;3.28;;
65172;SDS011;51758;52.218;5.172;2022-07-19T08:28:43;18.88;;;3.17;;
65172;SDS011;51758;52.218;5.172;2022-07-19T08:31:13;16.95;;;3.72;;
65172;SDS011;51758;52.218;5.172;2022-07-19T08:33:42;17.58;;;3.20;;
65172;SDS011;51758;52.218;5.172;2022-07-19T08:36:10;16.58;;;3.20;;
65172;SDS011;51758;52.218;5.172;2022-07-19T08:38:38;9.55;;;2.42;;
65172;SDS011;51758;52.218;5.172;2022-07-19T08:41:06;11.98;;;2.53;;
65172;SDS011;51758;52.218;5.172;2022-07-19T08:43:35;14.90;;;2.58;;
65172;SDS011;51758;52.218;5.172;2022-07-19T08:46:03;8.25;;;2.10;;
65172;SDS011;51758;52.218;5.172;2022-07-19T08:48:31;7.50;;;2.33;;
65172;SDS011;51758;52.218;5.172;2022-07-19T08:51:10;9.13;;;2.10;;
65172;SDS011;51758;52.218;5.172;2022-07-19T08:53:39;6.68;;;1.95;;
65172;SDS011;51758;52.218;5.172;2022-07-19T08:56:07;5.05;;;1.92;;
65172;SDS011;51758;52.218;5.172;2022-07-19T08:58:49;5.55;;;2.00;;
65172;SDS011;51758;52.218;5.172;2022-07-19T09:01:17;8.82;;;2.10;;
65172;SDS011;51758;52.218;5.172;2022-07-19T09:06:38;5.00;;;2.05;;
65172;SDS011;51758;52.218;5.172;2022-07-19T09:09:07;6.30;;;1.80;;
65172;SDS011;51758;52.218;5.172;2022-07-19T09:11:35;7.78;;;2.25;;
65172;SDS011;51758;52.218;5.172;2022-07-19T09:14:07;7.55;;;2.22;;
65172;SDS011;51758;52.218;5.172;2022-07-19T09:16:54;9.00;;;2.22;;
65172;SDS011;51758;52.218;5.172;2022-07-19T09:19:30;5.70;;;2.15;;
65172;SDS011;51758;52.218;5.172;2022-07-19T09:22:02;5.18;;;2.03;;
65172;SDS011;51758;52.218;5.172;2022-07-19T09:24:32;7.70;;;1.80;;
65172;SDS011;51758;52.218;5.172;2022-07-19T09:27:03;9.18;;;2.10;;
65172;SDS011;51758;52.218;5.172;2022-07-19T09:29:33;9.85;;;2.40;;
65172;SDS011;51758;52.218;5.172;2022-07-19T09:32:03;13.95;;;2.47;;
65172;SDS011;51758;52.218;5.172;2022-07-19T09:34:33;10.57;;;2.40;;
65172;SDS011;51758;52.218;5.172;2022-07-19T09:37:10;10.73;;;2.58;;
65172;SDS011;51758;52.218;5.172;2022-07-19T09:39:39;8.82;;;2.22;;
65172;SDS011;51758;52.218;5.172;2022-07-19T09:42:12;9.43;;;2.17;;
65172;SDS011;51758;52.218;5.172;2022-07-19T09:44:41;12.07;;;2.30;;
65172;SDS011;51758;52.218;5.172;2022-07-19T09:47:10;6.00;;;2.13;;
65172;SDS011;51758;52.218;5.172;2022-07-19T09:49:38;6.22;;;1.75;;
65172;SDS011;51758;52.218;5.172;2022-07-19T09:52:06;4.38;;;2.03;;
65172;SDS011;51758;52.218;5.172;2022-07-19T09:54:36;6.38;;;1.92;;
65172;SDS011;51758;52.218;5.172;2022-07-19T09:57:05;5.63;;;2.08;;
65172;SDS011;51758;52.218;5.172;2022-07-19T09:59:36;5.63;;;1.70;;
65172;SDS011;51758;52.218;5.172;2022-07-19T10:02:14;3.22;;;1.70;;
65172;SDS011;51758;52.218;5.172;2022-07-19T10:04:46;3.90;;;1.48;;
65172;SDS011;51758;52.218;5.172;2022-07-19T10:07:14;3.13;;;1.60;;
65172;SDS011;51758;52.218;5.172;2022-07-19T10:09:44;6.05;;;1.80;;
65172;SDS011;51758;52.218;5.172;2022-07-19T10:12:12;4.15;;;1.63;;
65172;SDS011;51758;52.218;5.172;2022-07-19T10:14:40;3.30;;;1.55;;
65172;SDS011;51758;52.218;5.172;2022-07-19T10:17:11;5.32;;;1.90;;
65172;SDS011;51758;52.218;5.172;2022-07-19T10:19:46;7.28;;;1.83;;
65172;SDS011;51758;52.218;5.172;2022-07-19T10:22:16;3.88;;;1.48;;
65172;SDS011;51758;52.218;5.172;2022-07-19T10:24:51;5.65;;;1.70;;
65172;SDS011;51758;52.218;5.172;2022-07-19T10:27:37;3.45;;;1.60;;
65172;SDS011;51758;52.218;5.172;2022-07-19T10:30:19;4.35;;;1.70;;
65172;SDS011;51758;52.218;5.172;2022-07-19T10:32:50;3.50;;;1.63;;
65172;SDS011;51758;52.218;5.172;2022-07-19T10:35:20;3.97;;;1.58;;
65172;SDS011;51758;52.218;5.172;2022-07-19T10:37:49;4.80;;;1.77;;
65172;SDS011;51758;52.218;5.172;2022-07-19T10:43:10;2.03;;;1.60;;
65172;SDS011;51758;52.218;5.172;2022-07-19T10:45:39;3.90;;;1.60;;
65172;SDS011;51758;52.218;5.172;2022-07-19T10:48:10;6.05;;;1.80;;
65172;SDS011;51758;52.218;5.172;2022-07-19T10:50:43;5.13;;;1.50;;
65172;SDS011;51758;52.218;5.172;2022-07-19T10:56:25;5.55;;;1.85;;
65172;SDS011;51758;52.218;5.172;2022-07-19T10:58:55;4.38;;;1.60;;
65172;SDS011;51758;52.218;5.172;2022-07-19T11:01:25;4.03;;;1.70;;
65172;SDS011;51758;52.218;5.172;2022-07-19T11:03:55;5.40;;;1.60;;
65172;SDS011;51758;52.218;5.172;2022-07-19T11:06:49;2.03;;;1.30;;
65172;SDS011;51758;52.218;5.172;2022-07-19T11:09:17;4.22;;;1.50;;
65172;SDS011;51758;52.218;5.172;2022-07-19T11:11:52;2.72;;;1.42;;
65172;SDS011;51758;52.218;5.172;2022-07-19T11:14:20;2.65;;;1.50;;
65172;SDS011;51758;52.218;5.172;2022-07-19T11:16:48;3.80;;;1.38;;
65172;SDS011;51758;52.218;5.172;2022-07-19T11:19:26;3.28;;;1.40;;
65172;SDS011;51758;52.218;5.172;2022-07-19T11:21:54;4.50;;;1.58;;
65172;SDS011;51758;52.218;5.172;2022-07-19T11:24:21;3.20;;;1.33;;
65172;SDS011;51758;52.218;5.172;2022-07-19T11:26:49;5.50;;;1.50;;
65172;SDS011;51758;52.218;5.172;2022-07-19T11:29:18;3.42;;;1.20;;
65172;SDS011;51758;52.218;5.172;2022-07-19T11:31:47;2.92;;;1.30;;
65172;SDS011;51758;52.218;5.172;2022-07-19T11:34:15;3.83;;;1.35;;
65172;SDS011;51758;52.218;5.172;2022-07-19T11:36:42;3.45;;;1.30;;
65172;SDS011;51758;52.218;5.172;2022-07-19T11:39:11;2.97;;;1.40;;
65172;SDS011;51758;52.218;5.172;2022-07-19T11:41:39;3.38;;;1.30;;
65172;SDS011;51758;52.218;5.172;2022-07-19T11:44:11;1.92;;;1.20;;
65172;SDS011;51758;52.218;5.172;2022-07-19T11:46:40;2.08;;;1.40;;
65172;SDS011;51758;52.218;5.172;2022-07-19T11:49:08;6.90;;;1.38;;
65172;SDS011;51758;52.218;5.172;2022-07-19T11:51:37;3.10;;;1.33;;
65172;SDS011;51758;52.218;5.172;2022-07-19T11:54:05;3.42;;;1.40;;
65172;SDS011;51758;52.218;5.172;2022-07-19T11:56:34;3.17;;;1.20;;
65172;SDS011;51758;52.218;5.172;2022-07-19T11:59:03;3.25;;;1.27;;
65172;SDS011;51758;52.218;5.172;2022-07-19T12:01:33;4.07;;;1.40;;
65172;SDS011;51758;52.218;5.172;2022-07-19T12:04:05;2.42;;;1.23;;
65172;SDS011;51758;52.218;5.172;2022-07-19T12:06:36;2.85;;;1.30;;
65172;SDS011;51758;52.218;5.172;2022-07-19T12:09:05;3.15;;;1.40;;
65172;SDS011;51758;52.218;5.172;2022-07-19T12:11:37;5.25;;;1.50;;
65172;SDS011;51758;52.218;5.172;2022-07-19T12:14:16;4.40;;;1.30;;
65172;SDS011;51758;52.218;5.172;2022-07-19T12:16:46;7.38;;;1.40;;
65172;SDS011;51758;52.218;5.172;2022-07-19T12:19:15;2.95;;;1.08;;
65172;SDS011;51758;52.218;5.172;2022-07-19T12:21:46;2.33;;;1.10;;
65172;SDS011;51758;52.218;5.172;2022-07-19T12:24:15;3.70;;;1.25;;
65172;SDS011;51758;52.218;5.172;2022-07-19T12:26:54;4.97;;;1.40;;
65172;SDS011;51758;52.218;5.172;2022-07-19T12:29:27;2.03;;;1.30;;
65172;SDS011;51758;52.218;5.172;2022-07-19T12:31:57;4.88;;;1.50;;
65172;SDS011;51758;52.218;5.172;2022-07-19T12:34:28;2.53;;;1.13;;
65172;SDS011;51758;52.218;5.172;2022-07-19T12:36:57;3.70;;;1.30;;
65172;SDS011;51758;52.218;5.172;2022-07-19T12:39:26;4.15;;;1.50;;
65172;SDS011;51758;52.218;5.172;2022-07-19T12:42:00;3.22;;;1.02;;
65172;SDS011;51758;52.218;5.172;2022-07-19T12:44:30;3.78;;;1.23;;
65172;SDS011;51758;52.218;5.172;2022-07-19T12:46:59;5.18;;;1.60;;
65172;SDS011;51758;52.218;5.172;2022-07-19T12:49:49;2.45;;;1.17;;
65172;SDS011;51758;52.218;5.172;2022-07-19T12:52:30;2.00;;;1.23;;
65172;SDS011;51758;52.218;5.172;2022-07-19T12:54:58;2.25;;;1.20;;
65172;SDS011;51758;52.218;5.172;2022-07-19T12:57:25;4.50;;;1.50;;
65172;SDS011;51758;52.218;5.172;2022-07-19T12:59:55;2.75;;;1.33;;
65172;SDS011;51758;52.218;5.172;2022-07-19T13:02:22;3.88;;;1.23;;
65172;SDS011;51758;52.218;5.172;2022-07-19T13:04:52;2.58;;;1.30;;
65172;SDS011;51758;52.218;5.172;2022-07-19T13:07:19;3.03;;;1.38;;
65172;SDS011;51758;52.218;5.172;2022-07-19T13:09:47;6.00;;;1.27;;
65172;SDS011;51758;52.218;5.172;2022-07-19T13:12:15;2.30;;;1.30;;
65172;SDS011;51758;52.218;5.172;2022-07-19T13:14:43;4.53;;;1.60;;
65172;SDS011;51758;52.218;5.172;2022-07-19T13:17:10;1.33;;;1.20;;
65172;SDS011;51758;52.218;5.172;2022-07-19T13:19:38;4.07;;;1.40;;
65172;SDS011;51758;52.218;5.172;2022-07-19T13:22:07;3.83;;;1.33;;
65172;SDS011;51758;52.218;5.172;2022-07-19T13:24:35;6.82;;;1.40;;
65172;SDS011;51758;52.218;5.172;2022-07-19T13:27:23;2.55;;;1.30;;
65172;SDS011;51758;52.218;5.172;2022-07-19T13:29:50;4.18;;;1.30;;
65172;SDS011;51758;52.218;5.172;2022-07-19T13:32:18;3.30;;;1.10;;
65172;SDS011;51758;52.218;5.172;2022-07-19T13:34:46;3.58;;;1.30;;
65172;SDS011;51758;52.218;5.172;2022-07-19T13:37:15;2.40;;;1.30;;
65172;SDS011;51758;52.218;5.172;2022-07-19T13:39:43;5.22;;;1.52;;
65172;SDS011;51758;52.218;5.172;2022-07-19T13:42:11;8.50;;;1.65;;
65172;SDS011;51758;52.218;5.172;2022-07-19T13:44:39;5.03;;;1.40;;
65172;SDS011;51758;52.218;5.172;2022-07-19T13:47:06;2.85;;;1.50;;
65172;SDS011;51758;52.218;5.172;2022-07-19T13:49:34;3.30;;;1.42;;
65172;SDS011;51758;52.218;5.172;2022-07-19T13:52:02;4.07;;;1.10;;
65172;SDS011;51758;52.218;5.172;2022-07-19T13:54:31;5.68;;;1.30;;
65172;SDS011;51758;52.218;5.172;2022-07-19T13:56:58;5.25;;;1.52;;
65172;SDS011;51758;52.218;5.172;2022-07-19T13:59:26;3.10;;;1.20;;
65172;SDS011;51758;52.218;5.172;2022-07-19T14:01:56;3.83;;;1.30;;
65172;SDS011;51758;52.218;5.172;2022-07-19T14:04:24;4.40;;;1.25;;
65172;SDS011;51758;52.218;5.172;2022-07-19T14:06:52;5.35;;;1.55;;
65172;SDS011;51758;52.218;5.172;2022-07-19T14:09:19;3.25;;;1.20;;
65172;SDS011;51758;52.218;5.172;2022-07-19T14:11:48;4.60;;;1.27;;
65172;SDS011;51758;52.218;5.172;2022-07-19T14:14:16;4.82;;;1.38;;
65172;SDS011;51758;52.218;5.172;2022-07-19T14:16:44;3.05;;;1.38;;
65172;SDS011;51758;52.218;5.172;2022-07-19T14:19:12;5.00;;;1.48;;
65172;SDS011;51758;52.218;5.172;2022-07-19T14:21:41;3.80;;;1.50;;
65172;SDS011;51758;52.218;5.172;2022-07-19T14:24:08;2.33;;;1.27;;
65172;SDS011;51758;52.218;5.172;2022-07-19T14:26:36;6.28;;;1.60;;
65172;SDS011;51758;52.218;5.172;2022-07-19T14:29:05;4.97;;;1.55;;
65172;SDS011;51758;52.218;5.172;2022-07-19T14:31:33;3.92;;;1.60;;
65172;SDS011;51758;52.218;5.172;2022-07-19T14:34:07;5.30;;;1.58;;
65172;SDS011;51758;52.218;5.172;2022-07-19T14:36:55;3.40;;;1.30;;
65172;SDS011;51758;52.218;5.172;2022-07-19T14:39:22;3.40;;;1.40;;
65172;SDS011;51758;52.218;5.172;2022-07-19T14:41:50;4.75;;;1.48;;
65172;SDS011;51758;52.218;5.172;2022-07-19T14:44:19;4.82;;;1.60;;
65172;SDS011;51758;52.218;5.172;2022-07-19T14:46:48;3.50;;;1.50;;
65172;SDS011;51758;52.218;5.172;2022-07-19T14:49:16;7.20;;;1.77;;
65172;SDS011;51758;52.218;5.172;2022-07-19T14:51:43;3.38;;;1.42;;
65172;SDS011;51758;52.218;5.172;2022-07-19T14:54:11;5.05;;;1.67;;
65172;SDS011;51758;52.218;5.172;2022-07-19T14:56:47;3.13;;;1.52;;
65172;SDS011;51758;52.218;5.172;2022-07-19T14:59:15;3.35;;;1.70;;
65172;SDS011;51758;52.218;5.172;2022-07-19T15:01:45;3.53;;;1.65;;
65172;SDS011;51758;52.218;5.172;2022-07-19T15:04:13;7.10;;;1.70;;
65172;SDS011;51758;52.218;5.172;2022-07-19T15:06:40;6.00;;;1.85;;
65172;SDS011;51758;52.218;5.172;2022-07-19T15:09:08;7.22;;;1.88;;
65172;SDS011;51758;52.218;5.172;2022-07-19T15:11:36;6.03;;;1.70;;
65172;SDS011;51758;52.218;5.172;2022-07-19T15:14:04;5.78;;;1.67;;
65172;SDS011;51758;52.218;5.172;2022-07-19T15:16:32;5.20;;;1.88;;
65172;SDS011;51758;52.218;5.172;2022-07-19T15:19:01;4.05;;;1.73;;